Terminal Aerodrome Forecast
Issued by NWS

Home | Current Version | Previous Version | Text Only | Print | Product List | Glossary Off
Versions: 1 2 3 4 5 6 7 8 9 10 11 12 13 14 15 16 17 18 19 20 21 22 23 24 25

000
FTUS43 KICT 201027 AAB
TAFCNU
TAF AMD
KCNU 201027Z 2010/2106 36013KT P6SM VCSH BKN005 OVC018
      TEMPO 2010/2014 SCT005 OVC018
     FM201400 01013KT P6SM OVC013
     FM201700 36017KT P6SM OVC022=

USA.gov is the U.S. government's official web portal to all federal, state and local government web resources and services.